createdAt,value
2022-08-21T00:00:25.715Z,18.63
2022-08-21T00:03:02.832Z,18.67
2022-08-21T00:05:32.001Z,18.70
2022-08-21T00:08:00.429Z,18.77
2022-08-21T00:10:28.883Z,18.68
2022-08-21T00:12:57.336Z,18.65
2022-08-21T00:15:29.294Z,18.75
2022-08-21T00:17:57.847Z,18.68
2022-08-21T00:20:26.174Z,18.44
2022-08-21T00:22:54.575Z,18.47
2022-08-21T00:25:26.385Z,18.15
2022-08-21T00:27:55.901Z,18.45
2022-08-21T00:30:25.156Z,18.32
2022-08-21T00:32:54.658Z,18.53
2022-08-21T00:35:25.904Z,18.51
2022-08-21T00:37:54.301Z,18.40
2022-08-21T00:40:26.955Z,18.38
2022-08-21T00:42:55.400Z,18.35
2022-08-21T00:45:23.896Z,18.42
2022-08-21T00:47:52.787Z,18.44
2022-08-21T00:50:22.376Z,18.53
2022-08-21T00:52:53.716Z,18.37
2022-08-21T00:55:22.711Z,18.35
2022-08-21T00:57:53.641Z,18.24
2022-08-21T01:00:25.969Z,18.28
2022-08-21T01:02:54.374Z,18.40
2022-08-21T01:05:23.102Z,18.29
2022-08-21T01:07:51.447Z,18.33
2022-08-21T01:10:24.093Z,18.32
2022-08-21T01:12:54.240Z,18.38
2022-08-21T01:15:23.936Z,18.20
2022-08-21T01:17:52.215Z,18.31
2022-08-21T01:20:20.574Z,18.17
2022-08-21T01:22:48.868Z,18.32
2022-08-21T01:25:20.836Z,18.30
2022-08-21T01:27:49.268Z,18.25
2022-08-21T01:30:20.240Z,18.20
2022-08-21T01:32:48.661Z,18.25
2022-08-21T01:35:17.365Z,18.26
2022-08-21T01:37:46.176Z,18.26
2022-08-21T01:40:15.412Z,18.30
2022-08-21T01:42:45.644Z,18.42
2022-08-21T01:45:14.184Z,18.42
2022-08-21T01:47:42.842Z,18.38
2022-08-21T01:50:14.545Z,18.19
2022-08-21T01:52:42.956Z,18.43
2022-08-21T01:55:11.692Z,18.44
2022-08-21T01:57:40.132Z,18.38
2022-08-21T02:00:12.070Z,18.54
2022-08-21T02:02:41.247Z,18.51
2022-08-21T02:05:10.977Z,18.53
2022-08-21T02:07:40.767Z,18.43
2022-08-21T02:10:09.702Z,18.49
2022-08-21T02:12:38.091Z,18.43
2022-08-21T02:15:08.000Z,18.34
2022-08-21T02:17:44.286Z,18.24
2022-08-21T02:20:15.996Z,18.22
2022-08-21T02:22:44.304Z,18.33
2022-08-21T02:25:12.750Z,18.35
2022-08-21T02:27:42.136Z,18.39
2022-08-21T02:30:18.874Z,18.39
2022-08-21T02:32:47.238Z,18.50
2022-08-21T02:35:15.517Z,18.48
2022-08-21T02:37:58.798Z,18.47
2022-08-21T02:40:29.239Z,18.42
2022-08-21T02:43:00.905Z,18.42
2022-08-21T02:45:30.034Z,18.28
2022-08-21T02:48:00.116Z,18.21
2022-08-21T02:50:33.470Z,18.17
2022-08-21T02:53:01.770Z,18.22
2022-08-21T02:55:31.200Z,18.18
2022-08-21T02:57:59.800Z,18.16
2022-08-21T03:00:30.204Z,18.24
2022-08-21T03:02:59.840Z,18.05
2022-08-21T03:05:28.942Z,17.90
2022-08-21T03:07:57.265Z,18.14
2022-08-21T03:10:26.242Z,18.13
2022-08-21T03:12:55.706Z,18.09
2022-08-21T03:15:25.086Z,18.10
2022-08-21T03:17:55.703Z,18.09
2022-08-21T03:20:25.207Z,17.87
2022-08-21T03:22:54.067Z,18.01
2022-08-21T03:25:35.683Z,17.96
2022-08-21T03:28:13.130Z,17.97
2022-08-21T03:30:43.337Z,17.96
2022-08-21T03:33:13.198Z,17.88
2022-08-21T03:35:44.873Z,17.97
2022-08-21T03:38:14.297Z,17.66
2022-08-21T03:40:46.117Z,17.87
2022-08-21T03:43:14.410Z,17.90
2022-08-21T03:45:42.815Z,17.82
2022-08-21T03:48:11.094Z,17.88
2022-08-21T03:50:43.313Z,17.20
2022-08-21T03:53:16.827Z,17.84
2022-08-21T03:55:50.748Z,17.71
2022-08-21T03:58:20.110Z,17.72
2022-08-21T04:00:49.383Z,17.63
2022-08-21T04:03:17.967Z,17.65
2022-08-21T04:05:47.116Z,17.73
2022-08-21T04:08:16.191Z,17.88
2022-08-21T04:10:44.939Z,17.84
2022-08-21T04:13:13.341Z,17.87
2022-08-21T04:15:42.374Z,18.02
2022-08-21T04:18:11.129Z,17.97
2022-08-21T04:20:39.655Z,17.96
2022-08-21T04:23:07.954Z,18.00
2022-08-21T04:25:36.770Z,17.97
2022-08-21T04:28:05.083Z,18.06
2022-08-21T04:30:33.546Z,18.15
2022-08-21T04:33:01.862Z,18.21
2022-08-21T04:35:31.311Z,18.09
2022-08-21T04:37:59.706Z,18.14
2022-08-21T04:40:28.777Z,18.16
2022-08-21T04:43:01.171Z,18.19
2022-08-21T04:45:31.655Z,18.09
2022-08-21T04:48:01.881Z,18.17
2022-08-21T04:50:44.279Z,18.08
2022-08-21T04:53:22.442Z,18.02
2022-08-21T04:55:52.321Z,17.97
2022-08-21T04:58:21.950Z,18.04
2022-08-21T05:00:50.298Z,18.04
2022-08-21T05:03:18.590Z,18.11
2022-08-21T05:05:47.015Z,18.17
2022-08-21T05:08:17.444Z,18.18
2022-08-21T05:10:46.052Z,18.31
2022-08-21T05:13:14.369Z,18.24
2022-08-21T05:15:43.538Z,18.23
2022-08-21T05:18:12.125Z,18.31
2022-08-21T05:20:40.870Z,18.39
2022-08-21T05:23:10.450Z,18.38
2022-08-21T05:25:38.949Z,18.25
2022-08-21T05:28:07.598Z,18.57
2022-08-21T05:30:36.880Z,18.61
2022-08-21T05:33:06.084Z,18.60
2022-08-21T05:35:34.817Z,18.63
2022-08-21T05:38:03.521Z,18.66
2022-08-21T05:40:32.309Z,18.71
2022-08-21T05:43:01.004Z,18.62
2022-08-21T05:45:42.016Z,18.84
2022-08-21T05:48:16.429Z,18.73
2022-08-21T05:50:45.609Z,19.16
2022-08-21T05:53:14.788Z,19.05
2022-08-21T05:55:46.176Z,18.86
2022-08-21T05:58:19.989Z,19.12
2022-08-21T06:00:49.122Z,19.10
2022-08-21T06:03:23.370Z,19.51
2022-08-21T06:05:51.857Z,19.46
2022-08-21T06:08:20.570Z,19.41
2022-08-21T06:10:49.459Z,19.30
2022-08-21T06:13:18.316Z,19.31
2022-08-21T06:15:46.848Z,19.36
2022-08-21T06:18:15.479Z,19.36
2022-08-21T06:20:44.418Z,19.42
2022-08-21T06:23:12.769Z,19.48
2022-08-21T06:25:41.219Z,19.43
2022-08-21T06:28:10.454Z,19.52
2022-08-21T06:30:39.219Z,19.30
2022-08-21T06:33:08.293Z,19.40
2022-08-21T06:35:36.766Z,19.38
2022-08-21T06:38:10.023Z,19.54
2022-08-21T06:40:39.015Z,19.57
2022-08-21T06:43:15.124Z,19.54
2022-08-21T06:45:43.954Z,19.46
2022-08-21T06:48:16.885Z,19.61
2022-08-21T06:50:48.444Z,19.30
2022-08-21T06:53:19.048Z,19.51
2022-08-21T06:55:48.293Z,19.62
2022-08-21T06:58:17.073Z,19.79
2022-08-21T07:00:47.544Z,19.76
2022-08-21T07:03:24.518Z,19.67
2022-08-21T07:05:53.099Z,19.70
2022-08-21T07:08:22.071Z,19.84
2022-08-21T07:10:50.542Z,19.85
2022-08-21T07:13:19.115Z,19.69
2022-08-21T07:15:47.729Z,19.55
2022-08-21T07:18:16.333Z,19.54
2022-08-21T07:20:44.940Z,19.62
2022-08-21T07:23:18.863Z,19.89
2022-08-21T07:25:47.332Z,20.03
2022-08-21T07:28:15.648Z,20.19
2022-08-21T07:30:44.029Z,20.28
2022-08-21T07:33:12.960Z,20.33
2022-08-21T07:35:41.292Z,20.33
2022-08-21T07:38:10.102Z,20.29
2022-08-21T07:40:40.922Z,20.46
2022-08-21T07:43:09.687Z,20.65
2022-08-21T07:45:38.141Z,20.91
2022-08-21T07:48:06.530Z,21.00
2022-08-21T07:50:35.078Z,20.84
2022-08-21T07:53:03.955Z,20.94
2022-08-21T07:55:32.353Z,20.86
2022-08-21T07:58:00.777Z,21.00
2022-08-21T08:00:29.975Z,21.36
2022-08-21T08:02:58.615Z,21.43
2022-08-21T08:05:29.752Z,21.47
2022-08-21T08:07:58.107Z,21.69
2022-08-21T08:10:27.692Z,21.92
2022-08-21T08:12:56.383Z,22.01
2022-08-21T08:15:28.348Z,22.19
2022-08-21T08:17:56.947Z,22.02
2022-08-21T08:20:27.637Z,22.21
2022-08-21T08:22:56.371Z,22.37
2022-08-21T08:25:25.495Z,22.26
2022-08-21T08:27:55.502Z,22.75
2022-08-21T08:30:25.044Z,22.98
2022-08-21T08:32:54.186Z,23.15
2022-08-21T08:35:24.783Z,23.14
2022-08-21T08:37:53.276Z,23.14
2022-08-21T08:40:30.582Z,23.23
2022-08-21T08:42:59.171Z,23.46
2022-08-21T08:45:28.671Z,23.58
2022-08-21T08:48:07.272Z,23.79
2022-08-21T08:50:46.337Z,23.74
2022-08-21T08:53:22.015Z,23.87
2022-08-21T08:55:50.642Z,23.96
2022-08-21T08:58:38.305Z,23.67
2022-08-21T09:01:17.720Z,23.69
2022-08-21T09:03:51.246Z,23.73
2022-08-21T09:06:38.785Z,24.05
2022-08-21T09:09:44.371Z,24.21
2022-08-21T09:12:34.196Z,24.50
2022-08-21T09:15:41.731Z,24.25
2022-08-21T09:18:24.781Z,24.44
2022-08-21T09:21:20.577Z,24.61
2022-08-21T09:24:15.490Z,24.91
2022-08-21T09:27:11.181Z,24.96
2022-08-21T09:29:42.312Z,24.97
2022-08-21T09:32:24.421Z,24.97
2022-08-21T09:35:21.169Z,25.02
2022-08-21T09:38:04.355Z,24.98
2022-08-21T09:40:43.412Z,25.10
2022-08-21T09:43:19.857Z,25.09
2022-08-21T09:45:50.541Z,25.03
2022-08-21T09:48:32.919Z,25.03
2022-08-21T09:51:13.551Z,24.78
2022-08-21T09:54:14.546Z,24.79
2022-08-21T09:57:12.068Z,24.55
2022-08-21T09:59:40.947Z,24.62
2022-08-21T10:02:32.142Z,24.50
2022-08-21T10:05:25.500Z,24.78
2022-08-21T10:07:54.182Z,24.81
2022-08-21T10:10:23.961Z,24.75
2022-08-21T10:13:06.992Z,24.98
2022-08-21T10:16:00.163Z,24.91
2022-08-21T10:18:31.665Z,25.04
2022-08-21T10:21:24.024Z,25.07
2022-08-21T10:24:07.424Z,25.16
2022-08-21T10:26:58.894Z,25.26
2022-08-21T10:29:39.989Z,25.19
2022-08-21T10:32:25.860Z,25.16
2022-08-21T10:35:15.831Z,25.29
2022-08-21T10:38:02.526Z,25.04
2022-08-21T10:40:43.031Z,25.15
2022-08-21T10:43:39.488Z,25.21
2022-08-21T10:46:27.191Z,25.32
2022-08-21T10:49:00.361Z,25.36
2022-08-21T10:51:54.274Z,25.25
2022-08-21T10:54:57.922Z,25.29
2022-08-21T10:57:46.836Z,25.48
2022-08-21T11:00:42.470Z,25.54
2022-08-21T11:03:17.962Z,25.44
2022-08-21T11:05:51.773Z,25.30
2022-08-21T11:08:51.176Z,25.53
2022-08-21T11:11:29.733Z,25.37
2022-08-21T11:14:19.648Z,25.66
2022-08-21T11:17:22.592Z,25.65
2022-08-21T11:20:14.847Z,25.25
2022-08-21T11:23:03.168Z,25.64
2022-08-21T11:25:54.331Z,25.61
2022-08-21T11:28:27.742Z,25.95
2022-08-21T11:31:30.565Z,25.74
2022-08-21T11:34:09.972Z,26.01
2022-08-21T11:37:20.908Z,26.22
2022-08-21T11:40:28.512Z,26.22
2022-08-21T11:43:04.508Z,26.27
2022-08-21T11:45:35.872Z,26.83
2022-08-21T11:59:42.488Z,27.70
2022-08-21T12:02:50.794Z,27.88
2022-08-21T12:05:36.669Z,27.92
2022-08-21T12:08:29.082Z,27.60
2022-08-21T12:11:29.755Z,27.86
2022-08-21T12:14:02.221Z,27.30
2022-08-21T12:16:38.505Z,27.34
2022-08-21T12:19:30.437Z,27.25
2022-08-21T12:21:59.121Z,27.27
2022-08-21T12:24:29.683Z,27.29
2022-08-21T12:27:26.501Z,27.18
2022-08-21T12:30:03.856Z,27.55
2022-08-21T12:32:43.042Z,27.17
2022-08-21T12:35:24.900Z,27.64
2022-08-21T12:38:09.751Z,27.81
2022-08-21T12:40:43.262Z,27.76
2022-08-21T12:43:46.756Z,27.63
2022-08-21T12:46:20.202Z,27.21
2022-08-21T12:49:18.367Z,27.18
2022-08-21T12:51:58.194Z,27.19
2022-08-21T12:54:31.975Z,27.45
2022-08-21T12:57:05.525Z,27.70
2022-08-21T12:59:34.432Z,26.98
2022-08-21T13:02:14.535Z,27.06
2022-08-21T13:04:45.032Z,26.53
2022-08-21T13:07:15.585Z,26.73
2022-08-21T13:10:06.571Z,26.69
2022-08-21T13:12:35.305Z,26.72
2022-08-21T13:15:06.503Z,26.53
2022-08-21T13:17:49.053Z,26.73
2022-08-21T13:20:27.318Z,26.90
2022-08-21T13:22:59.578Z,26.90
2022-08-21T13:25:30.645Z,26.81
2022-08-21T13:28:13.991Z,26.54
2022-08-21T13:30:47.275Z,26.51
2022-08-21T13:33:20.334Z,26.87
2022-08-21T13:36:02.127Z,26.81
2022-08-21T13:38:33.902Z,26.79
2022-08-21T13:41:27.101Z,26.58
2022-08-21T13:44:00.993Z,26.80
2022-08-21T13:46:32.166Z,26.90
2022-08-21T13:49:04.781Z,26.76
2022-08-21T13:51:33.291Z,26.58
2022-08-21T13:54:02.134Z,26.68
2022-08-21T13:56:44.490Z,26.59
2022-08-21T13:59:14.403Z,26.70
2022-08-21T14:02:16.646Z,26.72
2022-08-21T14:04:59.685Z,26.83
2022-08-21T14:07:33.577Z,26.82
2022-08-21T14:10:04.486Z,26.62
2022-08-21T14:12:53.421Z,26.72
2022-08-21T14:15:25.609Z,26.72
2022-08-21T14:17:54.177Z,26.87
2022-08-21T14:20:34.200Z,26.79
2022-08-21T14:23:03.110Z,26.68
2022-08-21T14:25:46.111Z,26.68
2022-08-21T14:28:36.721Z,26.49
2022-08-21T14:31:20.183Z,26.20
2022-08-21T14:33:49.811Z,26.36
2022-08-21T14:36:18.421Z,26.79
2022-08-21T14:38:47.005Z,26.84
2022-08-21T14:41:24.691Z,26.84
2022-08-21T14:44:04.339Z,26.99
2022-08-21T14:46:43.990Z,27.01
2022-08-21T14:49:27.717Z,26.99
2022-08-21T14:51:59.648Z,26.84
2022-08-21T14:54:30.661Z,26.55
2022-08-21T14:57:03.854Z,26.81
2022-08-21T14:59:34.399Z,26.74
2022-08-21T15:02:05.488Z,26.74
2022-08-21T15:04:34.449Z,26.58
2022-08-21T15:07:05.124Z,26.73
2022-08-21T15:09:33.612Z,26.73
2022-08-21T15:12:02.099Z,26.75
2022-08-21T15:14:39.732Z,26.85
2022-08-21T15:17:09.204Z,26.80
2022-08-21T15:19:39.588Z,26.67
2022-08-21T15:22:18.634Z,26.74
2022-08-21T15:24:47.760Z,26.73
2022-08-21T15:27:17.640Z,26.74
2022-08-21T15:29:47.686Z,26.75
2022-08-21T15:32:28.545Z,26.66
2022-08-21T15:34:57.353Z,26.72
2022-08-21T15:37:26.096Z,26.62
2022-08-21T15:39:54.805Z,26.59
2022-08-21T15:42:23.696Z,26.42
2022-08-21T15:44:52.279Z,26.26
2022-08-21T15:47:24.209Z,26.30
2022-08-21T15:49:52.751Z,26.40
2022-08-21T15:52:24.544Z,26.34
2022-08-21T15:54:53.742Z,26.49
2022-08-21T15:57:24.444Z,26.44
2022-08-21T16:00:14.686Z,26.48
2022-08-21T16:02:48.046Z,26.47
2022-08-21T16:05:18.396Z,26.41
2022-08-21T16:07:49.373Z,26.38
2022-08-21T16:10:20.291Z,26.52
2022-08-21T16:13:04.831Z,26.31
2022-08-21T16:15:33.304Z,26.18
2022-08-21T16:18:02.065Z,26.28
2022-08-21T16:20:32.479Z,26.21
2022-08-21T16:23:01.062Z,26.08
2022-08-21T16:25:52.752Z,25.70
2022-08-21T16:28:25.964Z,25.47
2022-08-21T16:31:00.771Z,25.51
2022-08-21T16:33:39.432Z,25.74
2022-08-21T16:36:09.924Z,25.93
2022-08-21T16:38:39.312Z,25.79
2022-08-21T16:41:10.843Z,26.29
2022-08-21T16:43:49.069Z,26.31
2022-08-21T16:46:17.983Z,26.37
2022-08-21T16:48:50.430Z,26.18
2022-08-21T16:51:19.813Z,26.19
2022-08-21T16:53:51.995Z,26.35
2022-08-21T16:56:21.437Z,26.35
2022-08-21T16:58:50.295Z,26.21
2022-08-21T17:01:21.377Z,26.33
2022-08-21T17:03:53.104Z,25.35
2022-08-21T17:06:22.456Z,24.40
2022-08-21T17:08:55.816Z,23.40
2022-08-21T17:11:39.240Z,23.10
2022-08-21T17:14:13.124Z,22.83
2022-08-21T17:16:44.398Z,22.44
2022-08-21T17:19:19.154Z,22.71
2022-08-21T17:21:48.692Z,22.56
2022-08-21T17:24:17.285Z,23.02
2022-08-21T17:26:46.247Z,22.10
2022-08-21T17:29:16.238Z,22.12
2022-08-21T17:31:45.132Z,22.58
2022-08-21T17:34:15.900Z,22.06
2022-08-21T17:36:46.153Z,22.24
2022-08-21T17:39:22.530Z,21.68
2022-08-21T17:42:05.814Z,22.21
2022-08-21T17:44:37.582Z,22.66
2022-08-21T17:47:08.303Z,22.25
2022-08-21T17:49:41.080Z,21.74
2022-08-21T17:52:11.668Z,22.45
2022-08-21T17:54:41.440Z,22.41
2022-08-21T17:57:16.532Z,22.49
2022-08-21T17:59:45.718Z,22.75
2022-08-21T18:02:20.142Z,22.61
2022-08-21T18:04:50.821Z,22.56
2022-08-21T18:07:32.121Z,22.32
2022-08-21T18:10:02.407Z,22.22
2022-08-21T18:12:32.869Z,21.77
2022-08-21T18:15:05.376Z,22.34
2022-08-21T18:17:40.773Z,22.47
2022-08-21T18:20:10.430Z,22.61
2022-08-21T18:22:41.571Z,22.85
2022-08-21T18:25:16.657Z,23.14
2022-08-21T18:27:48.432Z,22.93
2022-08-21T18:30:25.173Z,22.56
2022-08-21T18:32:53.660Z,22.10
2022-08-21T18:35:24.248Z,22.18
2022-08-21T18:38:00.286Z,22.79
2022-08-21T18:40:47.623Z,22.49
2022-08-21T18:43:25.851Z,22.66
2022-08-21T18:45:58.140Z,22.78
2022-08-21T18:48:40.932Z,22.19
2022-08-21T18:51:15.884Z,22.68
2022-08-21T18:56:51.319Z,22.14
2022-08-21T19:13:13.334Z,21.55
2022-08-21T19:15:44.455Z,21.38
2022-08-21T19:18:16.632Z,21.38
2022-08-21T19:26:23.961Z,20.66
2022-08-21T19:28:59.635Z,20.91
2022-08-21T19:31:34.049Z,20.18
2022-08-21T19:34:11.993Z,20.84
2022-08-21T19:36:45.904Z,20.34
2022-08-21T19:39:15.713Z,20.54
2022-08-21T19:41:50.620Z,20.03
2022-08-21T19:44:22.425Z,20.48
2022-08-21T19:46:53.519Z,20.63
2022-08-21T19:49:34.253Z,20.39
2022-08-21T19:52:13.864Z,20.02
2022-08-21T19:54:49.836Z,20.04
2022-08-21T19:57:24.771Z,20.45
2022-08-21T19:59:54.501Z,20.30
2022-08-21T20:02:31.423Z,20.12
2022-08-21T20:05:01.205Z,19.76
2022-08-21T20:07:33.132Z,20.38
2022-08-21T20:10:07.602Z,20.25
2022-08-21T20:12:42.163Z,20.32
2022-08-21T20:15:11.594Z,20.46
2022-08-21T20:17:43.156Z,20.24
2022-08-21T20:20:16.810Z,20.01
2022-08-21T20:22:51.282Z,20.17
2022-08-21T20:25:38.455Z,19.63
2022-08-21T20:28:08.642Z,20.19
2022-08-21T20:30:39.273Z,20.69
2022-08-21T20:33:15.612Z,20.25
2022-08-21T20:35:49.091Z,20.66
2022-08-21T20:38:20.899Z,20.25
2022-08-21T20:40:50.253Z,20.23
2022-08-21T20:43:19.223Z,19.81
2022-08-21T20:45:48.565Z,19.80
2022-08-21T20:48:49.530Z,19.38
2022-08-21T20:52:00.277Z,20.31
2022-08-21T20:54:41.187Z,20.49
2022-08-21T20:57:15.859Z,20.45
2022-08-21T20:59:59.023Z,20.52
2022-08-21T21:02:42.502Z,20.15
2022-08-21T21:05:16.953Z,20.53
2022-08-21T21:08:06.474Z,20.99
2022-08-21T21:10:42.016Z,20.95
2022-08-21T21:13:31.104Z,20.42
2022-08-21T21:16:06.408Z,20.69
2022-08-21T21:18:37.387Z,20.65
2022-08-21T21:21:17.582Z,20.88
2022-08-21T21:24:07.589Z,20.82
2022-08-21T21:26:49.646Z,20.50
2022-08-21T21:29:35.133Z,20.32
2022-08-21T21:32:05.223Z,20.61
2022-08-21T21:34:38.257Z,20.31
2022-08-21T21:37:07.841Z,20.42
2022-08-21T21:39:47.040Z,20.74
2022-08-21T21:42:31.384Z,20.75
2022-08-21T21:44:59.759Z,20.69
2022-08-21T21:47:41.234Z,19.85
2022-08-21T21:50:26.470Z,19.81
2022-08-21T21:52:54.851Z,19.86
2022-08-21T21:55:35.889Z,19.90
2022-08-21T21:58:19.128Z,20.32
2022-08-21T22:01:00.098Z,20.10
2022-08-21T22:04:06.466Z,20.21
2022-08-21T22:06:51.355Z,20.10
2022-08-21T22:09:34.779Z,20.31
2022-08-21T22:12:14.911Z,20.40
2022-08-21T22:14:46.646Z,20.44
2022-08-21T22:17:33.571Z,20.43
2022-08-21T22:20:07.041Z,20.52
2022-08-21T22:22:35.395Z,20.34
2022-08-21T22:25:26.558Z,20.40
2022-08-21T22:28:15.029Z,20.40
2022-08-21T22:30:48.943Z,20.35
2022-08-21T22:33:22.504Z,19.77
2022-08-21T22:35:53.735Z,20.15
2022-08-21T22:38:29.346Z,20.22
2022-08-21T22:41:17.505Z,20.21
2022-08-21T22:44:03.018Z,20.02
2022-08-21T22:46:42.115Z,19.88
2022-08-21T22:49:28.752Z,19.64
2022-08-21T22:52:11.456Z,19.94
2022-08-21T22:54:42.649Z,20.06
2022-08-21T22:57:31.129Z,20.07
2022-08-21T23:00:02.825Z,20.03
2022-08-21T23:02:42.709Z,20.05
2022-08-21T23:05:37.404Z,20.04
2022-08-21T23:08:36.932Z,20.04
2022-08-21T23:11:17.356Z,19.82
2022-08-21T23:13:47.767Z,19.97
2022-08-21T23:16:19.250Z,19.95
2022-08-21T23:19:26.158Z,19.79
2022-08-21T23:22:02.853Z,19.89
2022-08-21T23:24:46.589Z,19.93
2022-08-21T23:27:23.627Z,19.92
2022-08-21T23:29:56.951Z,19.70
2022-08-21T23:32:52.598Z,19.78
2022-08-21T23:35:51.176Z,19.68
2022-08-21T23:38:33.602Z,19.83
2022-08-21T23:41:33.874Z,19.91
2022-08-21T23:44:17.253Z,19.91
2022-08-21T23:47:21.512Z,19.77
2022-08-21T23:50:23.053Z,19.93
2022-08-21T23:52:59.094Z,19.87
2022-08-21T23:55:37.651Z,19.72
